Time;durP1;ratioP1;P1;durP2;ratioP2;P2;SDS_P1;SDS_P2;PMS_P1;PMS_P2;Temp;Humidity;BMP_temperature;BMP_pressure;BME280_temperature;BME280_humidity;BME280_pressure;Samples;Min_cycle;Max_cycle;Signal;HPM_P1;HPM_P2
2022/04/18 00:01:38;;;;;;;10.15;6.22;;;;;;;;;;5050959;28;20017;-76
2022/04/18 00:04:04;;;;;;;11.80;7.38;;;;;;;;;;5050708;28;20044;-77
2022/04/18 00:06:33;;;;;;;10.70;6.72;;;;;;;;;;5050875;28;20048;-76
2022/04/18 00:08:59;;;;;;;10.75;6.65;;;;;;;;;;5050144;28;20102;-75
2022/04/18 00:11:25;;;;;;;10.57;7.18;;;;;;;;;;5050023;28;20071;-75
2022/04/18 00:13:51;;;;;;;12.73;7.50;;;;;;;;;;5050992;28;20025;-76
2022/04/18 00:16:17;;;;;;;13.18;7.45;;;;;;;;;;5031542;28;20036;-76
2022/04/18 00:18:43;;;;;;;10.52;7.25;;;;;;;;;;5043827;28;20029;-76
2022/04/18 00:21:09;;;;;;;9.57;6.45;;;;;;;;;;5052080;28;20032;-76
2022/04/18 00:23:35;;;;;;;8.50;6.47;;;;;;;;;;5051908;28;20037;-76
2022/04/18 00:26:01;;;;;;;9.73;6.63;;;;;;;;;;5033754;28;20028;-76
2022/04/18 00:28:26;;;;;;;8.27;6.38;;;;;;;;;;5050655;28;20020;-77
2022/04/18 00:30:53;;;;;;;9.07;6.25;;;;;;;;;;5054314;28;20064;-75
2022/04/18 00:33:19;;;;;;;11.88;6.63;;;;;;;;;;5053918;28;20070;-75
2022/04/18 00:35:45;;;;;;;11.68;6.80;;;;;;;;;;5054216;28;20083;-76
2022/04/18 00:38:11;;;;;;;14.00;7.10;;;;;;;;;;5053396;28;20437;-76
2022/04/18 00:40:37;;;;;;;10.07;6.90;;;;;;;;;;5054035;28;20374;-75
2022/04/18 00:43:06;;;;;;;9.30;6.22;;;;;;;;;;5036147;28;20219;-76
2022/04/18 00:45:32;;;;;;;10.10;6.13;;;;;;;;;;5054521;28;20541;-76
2022/04/18 00:47:58;;;;;;;8.32;6.13;;;;;;;;;;5054189;28;20041;-76
2022/04/18 00:50:26;;;;;;;11.20;6.75;;;;;;;;;;5037077;28;20109;-77
2022/04/18 00:52:52;;;;;;;7.82;5.53;;;;;;;;;;5036393;28;20032;-77
2022/04/18 00:55:19;;;;;;;11.25;6.22;;;;;;;;;;5053950;28;20052;-76
2022/04/18 00:57:45;;;;;;;9.73;5.70;;;;;;;;;;5053492;28;20056;-76
2022/04/18 01:00:11;;;;;;;8.13;6.18;;;;;;;;;;5054033;28;20029;-76
2022/04/18 01:02:37;;;;;;;8.93;5.30;;;;;;;;;;5053767;28;20029;-75
2022/04/18 01:05:04;;;;;;;8.55;5.25;;;;;;;;;;5053401;28;20075;-75
2022/04/18 01:07:30;;;;;;;7.40;5.03;;;;;;;;;;5052828;28;20096;-76
2022/04/18 01:09:56;;;;;;;8.48;5.80;;;;;;;;;;5035645;28;20025;-78
2022/04/18 01:12:22;;;;;;;10.50;5.75;;;;;;;;;;5055646;28;20036;-76
2022/04/18 01:14:49;;;;;;;6.85;5.43;;;;;;;;;;5057725;28;20021;-76
2022/04/18 01:17:15;;;;;;;10.45;6.95;;;;;;;;;;5055786;28;20406;-76
2022/04/18 01:19:41;;;;;;;7.43;5.72;;;;;;;;;;5039821;28;20040;-76
2022/04/18 01:22:12;;;;;;;10.32;6.07;;;;;;;;;;5055550;28;20021;-76
2022/04/18 01:30:08;;;;;;;9.13;5.32;;;;;;;;;;5059362;28;20051;-75
2022/04/18 01:32:35;;;;;;;9.32;6.20;;;;;;;;;;5063590;28;20099;-75
2022/04/18 01:35:01;;;;;;;8.70;5.82;;;;;;;;;;5039952;28;20021;-74
2022/04/18 01:37:27;;;;;;;9.70;5.82;;;;;;;;;;5053269;28;20482;-76
2022/04/18 01:39:52;;;;;;;7.72;5.60;;;;;;;;;;5034634;28;20029;-74
2022/04/18 01:42:18;;;;;;;8.63;5.60;;;;;;;;;;5052842;28;20021;-75
2022/04/18 01:44:44;;;;;;;9.60;5.35;;;;;;;;;;5053514;28;20023;-76
2022/04/18 01:47:10;;;;;;;8.85;5.55;;;;;;;;;;5054637;28;20030;-75
2022/04/18 01:49:36;;;;;;;8.40;5.75;;;;;;;;;;5055116;28;20029;-75
2022/04/18 01:52:02;;;;;;;10.65;5.50;;;;;;;;;;5053301;28;20036;-75
2022/04/18 01:54:28;;;;;;;11.13;6.05;;;;;;;;;;5053134;28;20024;-77
2022/04/18 01:56:54;;;;;;;10.23;5.90;;;;;;;;;;5053323;28;20021;-74
2022/04/18 01:59:20;;;;;;;7.05;5.00;;;;;;;;;;5041257;28;20029;-75
2022/04/18 02:01:46;;;;;;;8.70;5.38;;;;;;;;;;5033635;28;20384;-75
2022/04/18 02:04:12;;;;;;;9.30;5.90;;;;;;;;;;5024300;28;20022;-75
2022/04/18 02:06:38;;;;;;;12.25;5.50;;;;;;;;;;5028298;28;20534;-75
2022/04/18 02:09:04;;;;;;;7.53;5.20;;;;;;;;;;5042680;28;20332;-76
2022/04/18 02:11:30;;;;;;;10.13;5.57;;;;;;;;;;5068173;22;20151;-72
2022/04/18 02:13:56;;;;;;;10.95;6.28;;;;;;;;;;5035707;28;20029;-73
2022/04/18 02:16:23;;;;;;;8.68;5.15;;;;;;;;;;5032456;28;20052;-73
2022/04/18 02:18:49;;;;;;;8.32;5.55;;;;;;;;;;5037107;28;20036;-74
2022/04/18 02:21:16;;;;;;;8.23;5.15;;;;;;;;;;5014058;28;20021;-73
2022/04/18 02:23:42;;;;;;;8.95;5.10;;;;;;;;;;5046978;28;20108;-73
2022/04/18 02:26:09;;;;;;;9.23;5.50;;;;;;;;;;5051824;28;20026;-74
2022/04/18 02:28:35;;;;;;;7.70;5.03;;;;;;;;;;5050840;28;20029;-74
2022/04/18 02:31:02;;;;;;;13.65;5.47;;;;;;;;;;5042850;28;20029;-74
2022/04/18 02:33:28;;;;;;;8.02;5.28;;;;;;;;;;5034120;28;20025;-74
2022/04/18 02:35:53;;;;;;;8.60;5.38;;;;;;;;;;5017790;28;20457;-75
2022/04/18 02:38:19;;;;;;;6.38;4.68;;;;;;;;;;5034436;28;20021;-74
2022/04/18 02:40:46;;;;;;;5.78;4.47;;;;;;;;;;5045620;28;20535;-74
2022/04/18 02:43:12;;;;;;;9.02;5.30;;;;;;;;;;5050618;28;20029;-70
2022/04/18 02:45:38;;;;;;;7.65;4.90;;;;;;;;;;5033921;28;20120;-70
2022/04/18 02:48:04;;;;;;;8.10;5.40;;;;;;;;;;5051071;28;20110;-71
2022/04/18 02:50:30;;;;;;;8.77;5.63;;;;;;;;;;5040678;28;20041;-74
2022/04/18 02:52:56;;;;;;;7.35;5.38;;;;;;;;;;5029988;28;20510;-72
2022/04/18 02:55:23;;;;;;;7.00;5.30;;;;;;;;;;5030469;28;20411;-74
2022/04/18 02:57:49;;;;;;;9.35;5.82;;;;;;;;;;5030663;28;20021;-72
2022/04/18 03:00:15;;;;;;;8.88;5.20;;;;;;;;;;5032650;28;20088;-72
2022/04/18 03:02:42;;;;;;;8.70;4.57;;;;;;;;;;5038021;28;20071;-72
2022/04/18 03:05:09;;;;;;;5.95;4.60;;;;;;;;;;5051337;28;20111;-71
2022/04/18 03:07:35;;;;;;;7.75;4.72;;;;;;;;;;5050468;28;20051;-75
2022/04/18 03:10:01;;;;;;;7.43;5.30;;;;;;;;;;5051252;28;20048;-72
2022/04/18 03:12:27;;;;;;;8.15;4.60;;;;;;;;;;5033013;28;20032;-74
2022/04/18 03:14:53;;;;;;;8.27;4.82;;;;;;;;;;5050686;28;20029;-75
2022/04/18 03:17:19;;;;;;;9.07;5.30;;;;;;;;;;5030389;28;20474;-70
2022/04/18 03:19:45;;;;;;;7.05;5.25;;;;;;;;;;5046139;28;20111;-73
2022/04/18 03:22:11;;;;;;;8.45;5.53;;;;;;;;;;5033008;28;20047;-70
2022/04/18 03:24:37;;;;;;;8.55;5.57;;;;;;;;;;5027845;28;20187;-70
2022/04/18 03:27:03;;;;;;;9.75;6.10;;;;;;;;;;5030432;28;20101;-71
2022/04/18 03:29:31;;;;;;;7.65;5.65;;;;;;;;;;5030784;28;20087;-71
2022/04/18 03:31:57;;;;;;;10.40;5.38;;;;;;;;;;5031013;28;20112;-71
2022/04/18 03:34:23;;;;;;;8.13;5.55;;;;;;;;;;5037523;28;20025;-72
2022/04/18 03:39:52;;;;;;;10.85;5.57;;;;;;;;;;5030911;28;20391;-72
2022/04/18 03:42:32;;;;;;;6.97;4.93;;;;;;;;;;5032435;28;20037;-71
2022/04/18 03:44:59;;;;;;;7.30;4.90;;;;;;;;;;5050680;28;20021;-72
2022/04/18 03:47:26;;;;;;;8.00;5.38;;;;;;;;;;5032199;28;20035;-71
2022/04/18 03:49:52;;;;;;;7.30;5.10;;;;;;;;;;5043789;28;20026;-72
2022/04/18 03:52:18;;;;;;;11.90;5.70;;;;;;;;;;5030750;28;20088;-72
2022/04/18 03:54:46;;;;;;;7.05;5.40;;;;;;;;;;5030990;28;20079;-72
2022/04/18 03:57:12;;;;;;;8.02;5.50;;;;;;;;;;5022573;28;20445;-71
2022/04/18 03:59:38;;;;;;;9.55;5.72;;;;;;;;;;5032403;28;20017;-72
2022/04/18 04:02:04;;;;;;;9.38;6.00;;;;;;;;;;5050993;28;20111;-72
2022/04/18 04:04:30;;;;;;;11.32;5.53;;;;;;;;;;5052876;28;20048;-69
2022/04/18 04:06:56;;;;;;;9.35;5.10;;;;;;;;;;5054316;28;20569;-71
2022/04/18 04:09:22;;;;;;;10.40;5.35;;;;;;;;;;5054035;28;20056;-72
2022/04/18 04:11:48;;;;;;;8.75;5.25;;;;;;;;;;5054203;28;20502;-72
2022/04/18 04:14:14;;;;;;;9.23;4.70;;;;;;;;;;5035669;28;20552;-70
2022/04/18 04:16:40;;;;;;;8.70;5.32;;;;;;;;;;5034449;28;20026;-70
2022/04/18 04:19:06;;;;;;;8.73;5.43;;;;;;;;;;5033246;28;20209;-70
2022/04/18 04:21:33;;;;;;;9.55;5.55;;;;;;;;;;5047798;28;20458;-71
2022/04/18 04:23:59;;;;;;;7.68;4.82;;;;;;;;;;5054131;28;20044;-70
2022/04/18 04:26:25;;;;;;;6.88;4.65;;;;;;;;;;5054197;28;20297;-72
2022/04/18 04:28:52;;;;;;;10.82;5.38;;;;;;;;;;5035432;28;20163;-71
2022/04/18 04:31:18;;;;;;;8.48;5.10;;;;;;;;;;5037149;28;20040;-72
2022/04/18 04:33:44;;;;;;;7.05;4.85;;;;;;;;;;5040521;28;20026;-71
2022/04/18 04:36:12;;;;;;;8.35;4.43;;;;;;;;;;5034756;28;20399;-71
2022/04/18 04:38:38;;;;;;;6.13;4.32;;;;;;;;;;5038691;28;20162;-70
2022/04/18 04:41:04;;;;;;;5.35;4.00;;;;;;;;;;5026530;28;20057;-70
2022/04/18 04:43:30;;;;;;;6.10;4.18;;;;;;;;;;5033925;28;20026;-70
2022/04/18 04:45:56;;;;;;;5.28;3.90;;;;;;;;;;5033869;28;20033;-73
2022/04/18 04:48:23;;;;;;;6.03;4.72;;;;;;;;;;5032947;28;20111;-70
2022/04/18 04:50:49;;;;;;;7.00;4.85;;;;;;;;;;5041305;28;20033;-72
2022/04/18 04:53:15;;;;;;;6.22;4.22;;;;;;;;;;5026546;28;20033;-73
2022/04/18 04:55:41;;;;;;;6.22;3.95;;;;;;;;;;5053979;28;20032;-73
2022/04/18 04:58:09;;;;;;;4.32;3.45;;;;;;;;;;5052690;28;20084;-72
2022/04/18 05:00:34;;;;;;;6.07;4.30;;;;;;;;;;5053461;28;20021;-72
2022/04/18 05:03:00;;;;;;;4.10;3.70;;;;;;;;;;5044490;28;20486;-73
2022/04/18 05:05:26;;;;;;;7.63;3.42;;;;;;;;;;5033670;28;20463;-71
2022/04/18 05:07:52;;;;;;;7.18;4.20;;;12.00;47.80;;;;;;5030770;28;20376;-72
2022/04/18 05:10:18;;;;;;;4.40;3.10;;;12.10;46.60;;;;;;5053398;28;20020;-72
2022/04/18 05:12:43;;;;;;;6.07;3.80;;;12.50;46.10;;;;;;5035285;28;20044;-74
2022/04/18 05:15:09;;;;;;;6.13;3.92;;;12.90;44.70;;;;;;5035979;28;20116;-73
2022/04/18 05:17:35;;;;;;;5.20;3.83;;;13.00;44.30;;;;;;5053599;28;20036;-73
2022/04/18 05:20:03;;;;;;;7.22;3.60;;;13.40;43.00;;;;;;5053187;28;20391;-73
2022/04/18 05:22:28;;;;;;;5.22;3.45;;;13.40;43.20;;;;;;5038006;28;20036;-73
2022/04/18 05:24:55;;;;;;;4.88;3.40;;;13.80;42.40;;;;;;5046285;28;20487;-71
2022/04/18 05:27:21;;;;;;;5.57;4.15;;;;;;;;;;5045309;28;20025;-72
2022/04/18 05:29:47;;;;;;;8.60;4.05;;;;;;;;;;5054014;28;20025;-73
2022/04/18 05:32:13;;;;;;;5.20;4.10;;;;;;;;;;5051509;28;20036;-73
2022/04/18 05:34:39;;;;;;;7.57;4.25;;;;;;;;;;5016237;28;20040;-71
2022/04/18 05:37:07;;;;;;;5.35;3.78;;;;;;;;;;5023674;28;20028;-73
2022/04/18 05:39:32;;;;;;;5.05;3.85;;;;;;;;;;5045680;28;20367;-75
2022/04/18 05:41:58;;;;;;;7.60;4.38;;;;;;;;;;5040964;28;20021;-73
2022/04/18 05:44:25;;;;;;;5.13;4.03;;;;;;;;;;5046152;28;20467;-73
2022/04/18 05:46:51;;;;;;;5.40;3.53;;;;;;;;;;5039870;28;20049;-73
2022/04/18 05:49:17;;;;;;;5.00;3.95;;;;;;;;;;5026641;28;20510;-76
2022/04/18 05:51:43;;;;;;;6.00;4.20;;;;;;;;;;5040869;28;20052;-73
2022/04/18 05:54:09;;;;;;;6.28;4.07;;;;;;;;;;5052175;28;20450;-73
2022/04/18 05:56:35;;;;;;;6.70;4.22;;;;;;;;;;5051376;28;20037;-74
2022/04/18 05:59:01;;;;;;;6.90;3.70;;;;;;;;;;5044860;28;20492;-72
2022/04/18 06:01:28;;;;;;;9.25;3.60;;;;;;;;;;5043521;28;20025;-73
2022/04/18 06:03:55;;;;;;;4.15;3.35;;;;;;;;;;5038233;28;20017;-75
2022/04/18 06:06:21;;;;;;;5.15;3.78;;;;;;;;;;5030043;28;20024;-74
2022/04/18 06:08:47;;;;;;;5.50;3.60;;;;;;;;;;5029662;28;20021;-74
2022/04/18 06:11:13;;;;;;;6.13;3.67;;;;;;;;;;5012660;28;20065;-73
2022/04/18 06:13:39;;;;;;;7.32;4.13;;;;;;;;;;5030202;28;20428;-75
2022/04/18 06:16:05;;;;;;;5.05;3.58;;;;;;;;;;5030075;28;20490;-74
2022/04/18 06:18:31;;;;;;;6.22;3.33;;;;;;;;;;5050519;28;20501;-73
2022/04/18 06:20:57;;;;;;;5.15;3.90;;;;;;;;;;5045334;28;20038;-73
2022/04/18 06:23:23;;;;;;;5.68;3.75;;;;;;;;;;5028536;28;20096;-76
2022/04/18 06:25:49;;;;;;;4.47;3.40;;;;;;;;;;5051852;28;20529;-76
2022/04/18 06:28:15;;;;;;;5.47;3.53;;;;;;;;;;5050538;28;20045;-76
2022/04/18 06:30:41;;;;;;;8.35;4.13;;;;;;;;;;5051620;28;20471;-76
2022/04/18 06:33:14;;;;;;;7.78;4.10;;;;;;;;;;5027459;28;20128;-76
2022/04/18 06:35:41;;;;;;;6.00;4.60;;;;;;;;;;5043260;28;20112;-76
2022/04/18 06:38:08;;;;;;;6.28;4.57;;;;;;;;;;5044336;28;20029;-76
2022/04/18 06:40:34;;;;;;;6.10;4.28;;;;;;;;;;5044595;28;20471;-76
2022/04/18 06:42:59;;;;;;;7.13;4.68;;;;;;;;;;5027545;28;20040;-79
2022/04/18 06:45:28;;;;;;;7.15;5.22;;;;;;;;;;5021835;28;20399;-76
2022/04/18 06:47:54;;;;;;;9.73;5.05;;;;;;;;;;5013144;28;20017;-76
2022/04/18 06:50:20;;;;;;;5.97;4.82;;;;;;;;;;5042657;28;20039;-77
2022/04/18 06:52:49;;;;;;;7.80;4.65;;;;;;;;;;5052047;28;20033;-75
2022/04/18 06:55:16;;;;;;;7.35;4.97;;;;;;;;;;5034691;28;20044;-74
2022/04/18 06:57:42;;;;;;;7.32;5.07;;;;;;;;;;5033355;28;20649;-77
2022/04/18 07:00:08;;;;;;;5.97;5.05;;;;;;;;;;5033978;28;20056;-78
2022/04/18 07:02:34;;;;;;;7.28;5.43;;;;;;;;;;5052010;28;20027;-78
2022/04/18 07:05:00;;;;;;;6.38;5.10;;;;;;;;;;5025325;28;20105;-77
2022/04/18 07:07:26;;;;;;;8.05;5.90;;;;;;;;;;5043429;28;20025;-77
2022/04/18 07:09:52;;;;;;;7.00;4.72;;;;;;;;;;5035930;28;20107;-76
2022/04/18 07:12:24;;;;;;;6.80;5.35;;;;;;;;;;5041946;28;20033;-74
2022/04/18 07:14:51;;;;;;;7.35;5.63;;;;;;;;;;5042604;28;20032;-80
2022/04/18 07:17:17;;;;;;;7.47;4.95;;;;;;;;;;5035036;28;20037;-75
2022/04/18 07:19:43;;;;;;;6.93;5.30;;;;;;;;;;5040047;28;20037;-79
2022/04/18 07:22:09;;;;;;;9.50;5.93;;;;;;;;;;5043113;28;20017;-78
2022/04/18 07:24:35;;;;;;;6.20;5.40;;;;;;;;;;5024317;28;20021;-77
2022/04/18 07:27:01;;;;;;;9.38;5.70;;;;;;;;;;5042054;28;20017;-77
2022/04/18 07:29:28;;;;;;;10.38;5.45;;;;;;;;;;5030870;28;20133;-77
2022/04/18 07:31:54;;;;;;;7.78;5.60;;;;;;;;;;5034543;28;20030;-73
2022/04/18 07:34:20;;;;;;;8.77;5.38;;;;;;;;;;5046510;28;20067;-74
2022/04/18 07:36:46;;;;;;;6.80;5.65;;;;;;;;;;5041886;28;20022;-74
2022/04/18 07:39:12;;;;;;;7.50;6.10;;;;;;;;;;5045760;28;20071;-75
2022/04/18 07:41:38;;;;;;;6.70;5.53;;;;;;;;;;5020936;28;20479;-76
2022/04/18 07:44:04;;;;;;;6.93;5.72;;;;;;;;;;5051224;28;20014;-73
2022/04/18 07:46:31;;;;;;;6.85;5.70;;;;;;;;;;5019139;28;20044;-73
2022/04/18 07:48:57;;;;;;;7.97;5.53;;;;;;;;;;5026937;28;20052;-74
2022/04/18 07:51:36;;;;;;;6.65;5.70;;;;;;;;;;5041183;28;20026;-71
2022/04/18 07:54:17;;;;;;;9.18;6.43;;;;;;;;;;5022138;28;20036;-73
2022/04/18 07:56:43;;;;;;;7.15;5.72;;;;;;;;;;5046319;28;20506;-72
2022/04/18 07:59:09;;;;;;;7.40;6.05;;;;;;;;;;5045642;28;20064;-72
2022/04/18 08:01:36;;;;;;;9.93;6.90;;;;;;;;;;5038349;28;20064;-69
2022/04/18 08:04:02;;;;;;;9.40;5.80;;;;;;;;;;5038634;28;20491;-68
2022/04/18 08:06:28;;;;;;;8.75;6.38;;;;;;;;;;5047469;28;20387;-68
2022/04/18 08:08:54;;;;;;;7.32;5.85;;;;;;;;;;5043602;28;20053;-68
2022/04/18 08:11:20;;;;;;;6.95;5.78;;;;;;;;;;5057129;22;20029;-73
2022/04/18 08:13:48;;;;;;;10.75;6.45;;;;;;;;;;5052242;28;20060;-74
2022/04/18 08:16:14;;;;;;;7.15;5.20;;;;;;;;;;5036177;28;20040;-73
2022/04/18 08:18:42;;;;;;;11.07;5.47;;;;;;;;;;5023585;28;20025;-74
2022/04/18 08:21:08;;;;;;;9.48;5.72;;;;;;;;;;5042185;28;20038;-73
2022/04/18 08:23:34;;;;;;;9.82;5.22;;;;;;;;;;5049492;28;20021;-73
2022/04/18 08:26:00;;;;;;;8.13;5.10;;;;;;;;;;5037078;28;20021;-77
2022/04/18 08:28:27;;;;;;;8.32;4.97;;;;;;;;;;5047077;28;20097;-74
2022/04/18 08:30:53;;;;;;;7.00;5.28;;;;;;;;;;5025421;28;20018;-74
2022/04/18 08:33:19;;;;;;;7.72;4.90;;;;;;;;;;5041487;28;20048;-73
2022/04/18 08:35:45;;;;;;;7.10;5.30;;;;;;;;;;5053093;28;20424;-75
2022/04/18 08:38:11;;;;;;;6.63;5.28;;;;;;;;;;5036858;28;20017;-75
2022/04/18 08:40:37;;;;;;;9.88;5.25;;;;;;;;;;5046051;28;20021;-72
2022/04/18 08:43:04;;;;;;;6.93;5.13;;;;;;;;;;5037835;28;20025;-72
2022/04/18 08:45:30;;;;;;;8.32;5.75;;;;;;;;;;5028402;28;20186;-70
2022/04/18 08:53:27;;;;;;;7.75;5.00;;;;;;;;;;5049724;28;20079;-71
2022/04/18 08:55:54;;;;;;;7.20;5.72;;;;;;;;;;5049605;28;20052;-74
2022/04/18 08:58:21;;;;;;;7.47;4.97;;;;;;;;;;5037397;28;20024;-76
2022/04/18 09:00:47;;;;;;;8.68;5.80;;;;;;;;;;5049556;28;20479;-72
2022/04/18 09:03:13;;;;;;;7.32;4.70;;;;;;;;;;5045776;28;20028;-77
2022/04/18 09:05:39;;;;;;;7.47;5.55;;;;;;;;;;5050418;28;20562;-76
2022/04/18 09:08:07;;;;;;;8.02;5.55;;;;;;;;;;5052894;28;20021;-78
2022/04/18 09:10:34;;;;;;;6.88;5.10;;;;;;;;;;5048058;28;20426;-77
2022/04/18 09:13:04;;;;;;;9.23;5.05;;;;;;;;;;5050435;28;20083;-76
2022/04/18 09:15:31;;;;;;;8.63;5.30;;;;;;;;;;5044679;28;20047;-75
2022/04/18 09:18:06;;;;;;;6.88;4.68;;;;;;;;;;5043772;28;20389;-76
2022/04/18 09:20:40;;;;;;;6.75;5.40;;;;;;;;;;5044316;28;20026;-75
2022/04/18 09:23:06;;;;;;;7.03;4.85;;;;;;;;;;5022869;28;20029;-74
2022/04/18 09:25:38;;;;;;;8.52;4.68;;;;;;;;;;5041708;28;20022;-76
2022/04/18 09:28:04;;;;;;;7.35;3.88;;;;;;;;;;5027978;28;20017;-76
2022/04/18 09:30:33;;;;;;;5.80;3.90;;;;;;;;;;5052461;28;20029;-75
2022/04/18 09:33:04;;;;;;;7.43;4.38;;;;;;;;;;5040638;28;20018;-76
2022/04/18 09:35:30;;;;;;;7.47;4.50;;;;;;;;;;5032659;28;20032;-75
2022/04/18 09:38:00;;;;;;;5.72;4.20;;;;;;;;;;5045656;28;20029;-73
2022/04/18 09:40:26;;;;;;;6.35;4.35;;;;;;;;;;5038984;28;20024;-75
2022/04/18 09:42:53;;;;;;;5.10;4.07;;;;;;;;;;5042574;28;20471;-76
2022/04/18 09:45:20;;;;;;;6.90;3.97;;;;;;;;;;5034715;28;20478;-75
2022/04/18 09:47:53;;;;;;;7.68;4.57;;;;;;;;;;5048181;28;20487;-75
2022/04/18 09:53:05;;;;;;;7.65;4.20;;;;;;;;;;5047352;28;20040;-76
2022/04/18 09:55:31;;;;;;;5.57;4.72;;;;;;;;;;5052384;28;20099;-76
2022/04/18 09:58:03;;;;;;;4.53;3.65;;;;;;;;;;5034706;28;20079;-73
2022/04/18 10:00:29;;;;;;;4.25;3.72;;;;;;;;;;5027109;28;20038;-74
2022/04/18 10:02:57;;;;;;;6.13;3.85;;;;;;;;;;5041939;28;20021;-76
2022/04/18 10:05:23;;;;;;;5.45;3.72;;;;;;;;;;5038210;28;20024;-74
2022/04/18 10:07:49;;;;;;;5.20;3.95;;;;;;;;;;5036317;28;20091;-73
2022/04/18 10:10:15;;;;;;;5.57;4.18;;;;;;;;;;5033462;28;20476;-72
2022/04/18 10:12:41;;;;;;;8.07;3.70;;;;;;;;;;5025774;28;20038;-73
2022/04/18 10:15:07;;;;;;;7.20;3.42;;;;;;;;;;5037772;28;20024;-74
2022/04/18 10:17:35;;;;;;;4.82;3.67;;;;;;;;;;5039931;28;20028;-73
2022/04/18 10:20:04;;;;;;;8.40;4.47;;;;;;;;;;5042921;28;20021;-73
2022/04/18 10:22:30;;;;;;;7.75;4.90;;;;;;;;;;5026822;28;20510;-72
2022/04/18 10:25:02;;;;;;;8.82;4.88;;;;;;;;;;5020333;28;20034;-74
2022/04/18 10:27:34;;;;;;;6.63;5.60;;;;;;;;;;5044590;28;20040;-75
2022/04/18 10:30:01;;;;;;;10.45;6.43;;;;;;;;;;5034823;28;20025;-76
2022/04/18 10:32:28;;;;;;;11.68;5.53;;;;;;;;;;5038011;28;20025;-74
2022/04/18 10:34:58;;;;;;;8.85;5.65;;;;;;;;;;5051766;28;20052;-72
2022/04/18 10:37:24;;;;;;;7.03;5.18;;;;;;;;;;5037827;28;20030;-74
2022/04/18 10:40:00;;;;;;;7.32;4.10;;;;;;;;;;5035189;28;20025;-74
2022/04/18 10:42:34;;;;;;;6.25;4.28;;;;;;;;;;5027088;28;20028;-76
2022/04/18 10:45:03;;;;;;;6.40;4.78;;;;;;;;;;5042522;28;20021;-74
2022/04/18 10:47:49;;;;;;;6.57;4.85;;;;;;;;;;5048488;28;20024;-76
2022/04/18 10:50:16;;;;;;;8.00;4.38;;;;;;;;;;5011227;28;20024;-76
2022/04/18 10:52:41;;;;;;;5.25;3.80;;;;;;;;;;5049144;28;20106;-74
2022/04/18 10:55:18;;;;;;;5.22;3.83;;;;;;;;;;5042666;28;20064;-75
2022/04/18 10:58:04;;;;;;;4.35;3.60;;;;;;;;;;5047059;28;20124;-73
2022/04/18 11:01:05;;;;;;;5.70;3.65;;;;;;;;;;5037670;28;20021;-74
2022/04/18 11:03:41;;;;;;;4.72;4.13;;;;;;;;;;5004332;28;20061;-72
2022/04/18 11:06:09;;;;;;;9.48;4.80;;;;;;;;;;5036574;28;20529;-75
2022/04/18 11:08:36;;;;;;;5.72;3.42;;;;;;;;;;5031172;28;20034;-75
2022/04/18 11:11:06;;;;;;;6.28;3.10;;;;;;;;;;5031453;28;20021;-74
2022/04/18 11:13:33;;;;;;;6.22;3.78;;;;;;;;;;5032818;28;20095;-73
2022/04/18 11:16:18;;;;;;;6.68;3.63;;;;;;;;;;5035965;28;20032;-75
2022/04/18 11:19:04;;;;;;;5.72;3.60;;;;;;;;;;5030410;28;20383;-73
2022/04/18 11:21:48;;;;;;;4.88;3.75;;;;;;;;;;5044014;28;20462;-76
2022/04/18 11:24:34;;;;;;;5.78;3.28;;;;;;;;;;5050942;28;20017;-76
2022/04/18 11:27:00;;;;;;;4.55;3.60;;;;;;;;;;5041639;28;20021;-74
2022/04/18 11:29:27;;;;;;;5.80;3.65;;;;;;;;;;5042966;28;20425;-74
2022/04/18 11:31:53;;;;;;;3.60;2.95;;;;;;;;;;5050521;28;20082;-72
2022/04/18 11:34:21;;;;;;;4.95;2.60;;;;;;;;;;5047103;28;20026;-72
2022/04/18 11:36:48;;;;;;;4.70;2.83;;;;;;;;;;5037059;28;20528;-72
2022/04/18 11:39:15;;;;;;;2.92;1.80;;;;;;;;;;5040781;28;20025;-72
2022/04/18 11:41:41;;;;;;;3.90;2.30;;;;;;;;;;5039143;28;20024;-73
2022/04/18 11:44:07;;;;;;;3.20;2.38;;;;;;;;;;5030340;28;20049;-72
2022/04/18 11:46:33;;;;;;;5.63;3.72;;;;;;;;;;5044413;28;20029;-73
2022/04/18 11:48:59;;;;;;;4.93;2.40;;;;;;;;;;5024735;28;20028;-72
2022/04/18 11:51:39;;;;;;;3.67;2.30;;;;;;;;;;5026932;28;20025;-72
2022/04/18 11:54:05;;;;;;;5.20;2.58;;;;;;;;;;5044133;28;20048;-71
2022/04/18 11:56:31;;;;;;;3.30;1.92;;;;;;;;;;5027039;28;20075;-72
2022/04/18 11:58:58;;;;;;;3.95;2.60;;;;;;;;;;5026551;28;20025;-73
2022/04/18 12:06:53;;;;;;;3.00;1.98;;;;;;;;;;5031154;28;20037;-74
2022/04/18 12:09:25;;;;;;;2.80;1.70;;;;;;;;;;5030364;28;20031;-72
2022/04/18 12:11:51;;;;;;;3.30;2.00;;;;;;;;;;5012812;28;20121;-71
2022/04/18 12:14:18;;;;;;;4.53;2.10;;;;;;;;;;5030652;28;20029;-72
2022/04/18 12:16:44;;;;;;;2.92;2.05;;;;;;;;;;5037341;28;20029;-72
2022/04/18 12:19:11;;;;;;;2.08;1.75;;;;;;;;;;5050066;28;20506;-72
2022/04/18 12:21:38;;;;;;;2.47;1.83;;;;;;;;;;5050884;28;20086;-72
2022/04/18 12:24:04;;;;;;;2.45;1.73;;;;;;;;;;5032690;28;20024;-74
2022/04/18 12:26:31;;;;;;;3.47;1.70;;;;;;;;;;5036275;28;20455;-73
2022/04/18 12:28:58;;;;;;;2.15;1.50;;;;;;;;;;5053667;28;20444;-73
2022/04/18 12:31:24;;;;;;;3.38;1.90;;;;;;;;;;5054415;28;20025;-73
2022/04/18 12:33:50;;;;;;;2.58;1.60;;;;;;;;;;5054159;28;20490;-72
2022/04/18 12:36:23;;;;;;;3.55;1.70;;;;;;;;;;5034348;28;20037;-72
2022/04/18 12:38:49;;;;;;;1.92;1.67;;;;;;;;;;5033636;28;20025;-72
2022/04/18 12:41:15;;;;;;;2.90;1.80;;;;;;;;;;5034252;28;20025;-72
2022/04/18 12:43:41;;;;;;;2.25;1.65;;;;;;;;;;5034093;28;20033;-73
2022/04/18 12:46:11;;;;;;;3.05;1.60;;;;;;;;;;5033685;28;20025;-72
2022/04/18 12:48:38;;;;;;;4.13;1.63;;;;;;;;;;5032919;28;20018;-72
2022/04/18 12:51:05;;;;;;;2.50;1.30;;;;;;;;;;5033980;28;20471;-71
2022/04/18 12:53:45;;;;;;;1.58;1.30;;;;;;;;;;5025829;28;20025;-71
2022/04/18 12:56:11;;;;;;;2.08;1.40;;;;;;;;;;5035064;28;20036;-73
2022/04/18 12:58:39;;;;;;;1.80;1.40;;;;;;;;;;5033109;28;20099;-71
2022/04/18 13:01:05;;;;;;;1.55;1.08;;;;;;;;;;5033682;28;20023;-71
2022/04/18 13:03:40;;;;;;;3.17;1.50;;;;;;;;;;5033793;28;20494;-72
2022/04/18 13:06:06;;;;;;;2.25;1.65;;;;;;;;;;5033787;28;20029;-71
2022/04/18 13:08:36;;;;;;;5.15;1.50;;;;;;;;;;5032868;28;20032;-73
2022/04/18 13:11:02;;;;;;;1.92;1.40;;;;;;;;;;5033686;28;20434;-72
2022/04/18 13:13:28;;;;;;;2.20;1.50;;;;;;;;;;5015658;28;20433;-71
2022/04/18 13:15:54;;;;;;;4.25;1.83;;;;;;;;;;5015434;28;20028;-72
2022/04/18 13:18:21;;;;;;;1.83;1.17;;;;;;;;;;5014291;28;20475;-72
2022/04/18 13:20:47;;;;;;;3.28;1.60;;;;;;;;;;5032988;28;20030;-72
2022/04/18 13:23:13;;;;;;;4.13;1.40;;;;;;;;;;5032991;28;20465;-72
2022/04/18 13:25:39;;;;;;;2.45;1.50;;;;;;;;;;5033057;28;20060;-72
2022/04/18 13:28:07;;;;;;;2.50;1.48;;;;;;;;;;5032405;28;20029;-73
2022/04/18 13:30:33;;;;;;;2.28;1.50;;;;;;;;;;5033328;28;20386;-73
2022/04/18 13:32:59;;;;;;;2.67;1.55;;;;;;;;;;5041269;28;20020;-74
2022/04/18 13:35:25;;;;;;;2.00;1.50;;;;;;;;;;5041019;28;20029;-73
2022/04/18 13:37:51;;;;;;;2.30;1.80;;;;;;;;;;5032248;28;20022;-73
2022/04/18 13:40:17;;;;;;;6.15;2.00;;;;;;;;;;5014757;28;20395;-73
2022/04/18 13:42:44;;;;;;;3.35;1.67;;;;;;;;;;5032805;28;20021;-72
2022/04/18 13:45:14;;;;;;;2.60;1.98;;;;;;;;;;5015143;28;20041;-73
2022/04/18 13:47:43;;;;;;;3.53;1.90;;;;;;;;;;5032213;28;20097;-73
2022/04/18 13:50:11;;;;;;;4.32;1.52;;;;;;;;;;5032432;28;20032;-72
2022/04/18 13:52:38;;;;;;;3.67;1.75;;;;;;;;;;5034895;28;20036;-72
2022/04/18 13:55:04;;;;;;;2.17;1.42;;;;;;;;;;5043249;28;20028;-73
2022/04/18 13:57:30;;;;;;;2.25;1.80;;;;;;;;;;5031190;28;20045;-72
2022/04/18 13:59:56;;;;;;;2.97;2.03;;;;;;;;;;5032541;28;20017;-76
2022/04/18 14:02:22;;;;;;;2.97;2.08;;;;;;;;;;5031994;28;20435;-72
2022/04/18 14:04:47;;;;;;;2.92;1.65;;;;;;;;;;5032561;28;20020;-71
2022/04/18 14:07:15;;;;;;;2.45;1.75;;;;;;;;;;5031468;28;20053;-75
2022/04/18 14:09:42;;;;;;;3.63;2.20;;;;;;;;;;5032660;28;20029;-76
2022/04/18 14:12:08;;;;;;;2.58;1.75;;;;;;;;;;5057497;22;20163;-71
2022/04/18 14:20:23;;;;;;;3.00;1.75;;;;;;;;;;5032035;28;20446;-72
2022/04/18 14:22:50;;;;;;;2.88;1.75;;;;;;;;;;5032133;28;20029;-72
2022/04/18 14:25:17;;;;;;;3.20;2.08;;;;;;;;;;5032068;28;20021;-73
2022/04/18 14:27:43;;;;;;;2.30;1.58;;;;;;;;;;5031469;28;20075;-72
2022/04/18 14:30:09;;;;;;;2.42;1.50;;;;;;;;;;5014190;28;20030;-71
2022/04/18 14:32:38;;;;;;;2.25;1.80;;;;;;;;;;5031786;28;20380;-71
2022/04/18 14:35:04;;;;;;;1.73;1.40;;;;;;;;;;5032007;28;20061;-73
2022/04/18 14:37:30;;;;;;;2.53;1.48;;;;;;;;;;5031137;28;20076;-72
2022/04/18 14:39:56;;;;;;;1.90;1.38;;;;;;;;;;5030474;28;20053;-73
2022/04/18 14:42:25;;;;;;;1.90;1.48;;;;;;;;;;5031414;28;20024;-72
2022/04/18 14:44:51;;;;;;;3.03;1.55;;;;;;;;;;5024975;28;20029;-72
2022/04/18 14:47:17;;;;;;;1.63;1.50;;;;;;;;;;5023350;28;20034;-72
2022/04/18 14:49:43;;;;;;;2.22;1.52;;;;;;;;;;5015745;28;20076;-73
2022/04/18 14:52:10;;;;;;;2.28;1.60;;;;;;;;;;5012288;28;20405;-73
2022/04/18 14:54:36;;;;;;;3.33;1.52;;;;;;;;;;5031594;28;20089;-73
2022/04/18 14:57:03;;;;;;;4.22;1.58;;;;;;;;;;5030161;28;20516;-73
2022/04/18 14:59:29;;;;;;;3.47;1.92;;;;;;;;;;5031417;28;20068;-72
2022/04/18 15:01:55;;;;;;;7.43;2.92;;;;;;;;;;5031751;28;20037;-73
2022/04/18 15:04:23;;;;;;;2.83;1.05;;;;;;;;;;5031733;28;20018;-72
2022/04/18 15:06:50;;;;;;;1.88;1.38;;;;;;;;;;5031717;28;20474;-74